Terminal Aerodrome Forecast
Issued by NWS

Home | Current Version | Previous Version | Text Only | Print | Product List | Glossary Off
Versions: 1 2 3 4 5 6 7 8 9 10 11 12 13 14 15 16 17

000
FTUS43 KPAH 241400 AAA
TAFCGI
TAF AMD
KCGI 241439Z 2415/2512 26015G25KT P6SM BKN035
      TEMPO 2417/2421 SCT035
     FM250000 25006KT P6SM FEW050=

USA.gov is the U.S. government's official web portal to all federal, state and local government web resources and services.